sensor_id;sensor_type;location;lat;lon;timestamp;P1;durP1;ratioP1;P2;durP2;ratioP2
30505;SDS011;17292;51.600;4.994;2023-11-21T00:00:20;5.32;;;1.92;;
30505;SDS011;17292;51.600;4.994;2023-11-21T00:02:46;5.60;;;2.17;;
30505;SDS011;17292;51.600;4.994;2023-11-21T00:05:13;3.55;;;2.13;;
30505;SDS011;17292;51.600;4.994;2023-11-21T00:07:40;6.40;;;2.25;;
30505;SDS011;17292;51.600;4.994;2023-11-21T00:10:07;5.72;;;2.08;;
30505;SDS011;17292;51.600;4.994;2023-11-21T00:12:33;4.63;;;2.17;;
30505;SDS011;17292;51.600;4.994;2023-11-21T00:15:00;6.05;;;2.10;;
30505;SDS011;17292;51.600;4.994;2023-11-21T00:17:26;4.20;;;2.03;;
30505;SDS011;17292;51.600;4.994;2023-11-21T00:19:53;9.85;;;2.55;;
30505;SDS011;17292;51.600;4.994;2023-11-21T00:22:19;5.75;;;2.20;;
30505;SDS011;17292;51.600;4.994;2023-11-21T00:24:45;6.80;;;2.58;;
30505;SDS011;17292;51.600;4.994;2023-11-21T00:27:11;5.28;;;2.42;;
30505;SDS011;17292;51.600;4.994;2023-11-21T00:29:38;6.70;;;2.28;;
30505;SDS011;17292;51.600;4.994;2023-11-21T00:32:04;6.75;;;2.38;;
30505;SDS011;17292;51.600;4.994;2023-11-21T00:34:31;4.90;;;2.42;;
30505;SDS011;17292;51.600;4.994;2023-11-21T00:36:57;6.72;;;2.00;;
30505;SDS011;17292;51.600;4.994;2023-11-21T00:39:23;4.22;;;2.40;;
30505;SDS011;17292;51.600;4.994;2023-11-21T00:41:51;3.17;;;1.70;;
30505;SDS011;17292;51.600;4.994;2023-11-21T00:44:18;6.30;;;2.13;;
30505;SDS011;17292;51.600;4.994;2023-11-21T00:46:44;6.20;;;2.15;;
30505;SDS011;17292;51.600;4.994;2023-11-21T00:49:10;8.82;;;2.50;;
30505;SDS011;17292;51.600;4.994;2023-11-21T00:51:36;2.92;;;2.00;;
30505;SDS011;17292;51.600;4.994;2023-11-21T00:54:02;6.07;;;2.20;;
30505;SDS011;17292;51.600;4.994;2023-11-21T00:56:28;6.85;;;2.13;;
30505;SDS011;17292;51.600;4.994;2023-11-21T00:58:54;5.22;;;2.22;;
30505;SDS011;17292;51.600;4.994;2023-11-21T01:01:21;4.18;;;2.35;;
30505;SDS011;17292;51.600;4.994;2023-11-21T01:03:48;3.25;;;2.15;;
30505;SDS011;17292;51.600;4.994;2023-11-21T01:06:14;6.70;;;2.03;;
30505;SDS011;17292;51.600;4.994;2023-11-21T01:08:41;6.72;;;2.38;;
30505;SDS011;17292;51.600;4.994;2023-11-21T01:11:07;7.13;;;2.03;;
30505;SDS011;17292;51.600;4.994;2023-11-21T01:13:33;6.10;;;2.30;;
30505;SDS011;17292;51.600;4.994;2023-11-21T01:16:01;5.18;;;2.00;;
30505;SDS011;17292;51.600;4.994;2023-11-21T01:18:27;6.82;;;1.80;;
30505;SDS011;17292;51.600;4.994;2023-11-21T01:20:54;5.68;;;1.95;;
30505;SDS011;17292;51.600;4.994;2023-11-21T01:23:20;6.07;;;2.25;;
30505;SDS011;17292;51.600;4.994;2023-11-21T01:25:47;4.35;;;2.03;;
30505;SDS011;17292;51.600;4.994;2023-11-21T01:28:13;4.90;;;2.05;;
30505;SDS011;17292;51.600;4.994;2023-11-21T01:30:39;4.82;;;1.90;;
30505;SDS011;17292;51.600;4.994;2023-11-21T01:33:05;8.70;;;2.55;;
30505;SDS011;17292;51.600;4.994;2023-11-21T01:35:31;4.43;;;2.28;;
30505;SDS011;17292;51.600;4.994;2023-11-21T01:37:57;2.65;;;2.00;;
30505;SDS011;17292;51.600;4.994;2023-11-21T01:40:24;5.60;;;2.22;;
30505;SDS011;17292;51.600;4.994;2023-11-21T01:42:50;6.45;;;2.20;;
30505;SDS011;17292;51.600;4.994;2023-11-21T01:45:16;5.50;;;2.40;;
30505;SDS011;17292;51.600;4.994;2023-11-21T01:47:42;4.60;;;2.08;;
30505;SDS011;17292;51.600;4.994;2023-11-21T01:50:12;4.72;;;2.22;;
30505;SDS011;17292;51.600;4.994;2023-11-21T01:52:39;5.03;;;2.03;;
30505;SDS011;17292;51.600;4.994;2023-11-21T01:55:06;7.82;;;2.33;;
30505;SDS011;17292;51.600;4.994;2023-11-21T01:57:37;5.27;;;2.17;;
30505;SDS011;17292;51.600;4.994;2023-11-21T02:00:04;5.13;;;1.95;;
30505;SDS011;17292;51.600;4.994;2023-11-21T02:02:47;3.75;;;2.17;;
30505;SDS011;17292;51.600;4.994;2023-11-21T02:05:17;5.60;;;2.33;;
30505;SDS011;17292;51.600;4.994;2023-11-21T02:07:44;4.70;;;2.28;;
30505;SDS011;17292;51.600;4.994;2023-11-21T02:10:13;6.53;;;2.22;;
30505;SDS011;17292;51.600;4.994;2023-11-21T02:12:40;5.70;;;2.25;;
30505;SDS011;17292;51.600;4.994;2023-11-21T02:15:07;5.80;;;2.20;;
30505;SDS011;17292;51.600;4.994;2023-11-21T02:17:42;5.90;;;2.17;;
30505;SDS011;17292;51.600;4.994;2023-11-21T02:20:12;4.10;;;2.35;;
30505;SDS011;17292;51.600;4.994;2023-11-21T02:22:43;5.82;;;2.10;;
30505;SDS011;17292;51.600;4.994;2023-11-21T02:25:09;5.13;;;2.17;;
30505;SDS011;17292;51.600;4.994;2023-11-21T02:27:36;5.15;;;2.35;;
30505;SDS011;17292;51.600;4.994;2023-11-21T02:30:03;4.32;;;1.88;;
30505;SDS011;17292;51.600;4.994;2023-11-21T02:32:30;3.97;;;2.10;;
30505;SDS011;17292;51.600;4.994;2023-11-21T02:34:56;6.38;;;2.28;;
30505;SDS011;17292;51.600;4.994;2023-11-21T02:37:26;4.55;;;1.70;;
30505;SDS011;17292;51.600;4.994;2023-11-21T02:39:52;5.55;;;2.35;;
30505;SDS011;17292;51.600;4.994;2023-11-21T02:42:18;2.72;;;1.63;;
30505;SDS011;17292;51.600;4.994;2023-11-21T02:44:44;4.10;;;1.98;;
30505;SDS011;17292;51.600;4.994;2023-11-21T02:47:10;5.57;;;2.08;;
30505;SDS011;17292;51.600;4.994;2023-11-21T02:49:37;3.80;;;1.95;;
30505;SDS011;17292;51.600;4.994;2023-11-21T02:52:03;3.50;;;1.63;;
30505;SDS011;17292;51.600;4.994;2023-11-21T02:54:29;4.95;;;1.90;;
30505;SDS011;17292;51.600;4.994;2023-11-21T02:56:56;3.60;;;2.10;;
30505;SDS011;17292;51.600;4.994;2023-11-21T02:59:23;2.28;;;1.80;;
30505;SDS011;17292;51.600;4.994;2023-11-21T03:01:50;4.95;;;1.92;;
30505;SDS011;17292;51.600;4.994;2023-11-21T03:04:16;4.13;;;2.05;;
30505;SDS011;17292;51.600;4.994;2023-11-21T03:06:44;7.22;;;2.33;;
30505;SDS011;17292;51.600;4.994;2023-11-21T03:09:11;4.18;;;1.85;;
30505;SDS011;17292;51.600;4.994;2023-11-21T03:11:37;3.65;;;1.88;;
30505;SDS011;17292;51.600;4.994;2023-11-21T03:14:03;5.03;;;1.98;;
30505;SDS011;17292;51.600;4.994;2023-11-21T03:16:31;3.78;;;1.90;;
30505;SDS011;17292;51.600;4.994;2023-11-21T03:18:57;5.43;;;2.30;;
30505;SDS011;17292;51.600;4.994;2023-11-21T03:21:24;3.22;;;1.98;;
30505;SDS011;17292;51.600;4.994;2023-11-21T03:23:51;5.38;;;1.70;;
30505;SDS011;17292;51.600;4.994;2023-11-21T03:26:17;7.22;;;1.83;;
30505;SDS011;17292;51.600;4.994;2023-11-21T03:28:44;3.97;;;2.00;;
30505;SDS011;17292;51.600;4.994;2023-11-21T03:31:11;3.85;;;2.00;;
30505;SDS011;17292;51.600;4.994;2023-11-21T03:33:37;3.95;;;1.80;;
30505;SDS011;17292;51.600;4.994;2023-11-21T03:36:03;8.18;;;2.00;;
30505;SDS011;17292;51.600;4.994;2023-11-21T03:38:29;4.30;;;1.75;;
30505;SDS011;17292;51.600;4.994;2023-11-21T03:40:55;2.72;;;1.80;;
30505;SDS011;17292;51.600;4.994;2023-11-21T03:43:22;2.70;;;1.70;;
30505;SDS011;17292;51.600;4.994;2023-11-21T03:45:49;3.00;;;1.70;;
30505;SDS011;17292;51.600;4.994;2023-11-21T03:48:15;4.63;;;2.17;;
30505;SDS011;17292;51.600;4.994;2023-11-21T03:50:41;4.80;;;2.13;;
30505;SDS011;17292;51.600;4.994;2023-11-21T03:53:08;4.55;;;2.20;;
30505;SDS011;17292;51.600;4.994;2023-11-21T03:55:34;2.67;;;1.85;;
30505;SDS011;17292;51.600;4.994;2023-11-21T03:58:00;2.40;;;1.80;;
30505;SDS011;17292;51.600;4.994;2023-11-21T04:00:27;3.55;;;1.98;;
30505;SDS011;17292;51.600;4.994;2023-11-21T04:02:53;3.80;;;1.80;;
30505;SDS011;17292;51.600;4.994;2023-11-21T04:05:20;3.53;;;1.58;;
30505;SDS011;17292;51.600;4.994;2023-11-21T04:07:49;5.55;;;1.92;;
30505;SDS011;17292;51.600;4.994;2023-11-21T04:10:18;4.15;;;1.98;;
30505;SDS011;17292;51.600;4.994;2023-11-21T04:12:44;4.30;;;1.80;;
30505;SDS011;17292;51.600;4.994;2023-11-21T04:15:11;3.97;;;1.90;;
30505;SDS011;17292;51.600;4.994;2023-11-21T04:17:40;4.15;;;1.75;;
30505;SDS011;17292;51.600;4.994;2023-11-21T04:20:07;4.65;;;1.95;;
30505;SDS011;17292;51.600;4.994;2023-11-21T04:22:41;3.42;;;1.75;;
30505;SDS011;17292;51.600;4.994;2023-11-21T04:25:09;5.38;;;2.08;;
30505;SDS011;17292;51.600;4.994;2023-11-21T04:27:36;6.05;;;2.47;;
30505;SDS011;17292;51.600;4.994;2023-11-21T04:30:02;6.55;;;2.20;;
30505;SDS011;17292;51.600;4.994;2023-11-21T04:32:29;4.50;;;1.80;;
30505;SDS011;17292;51.600;4.994;2023-11-21T04:34:55;3.80;;;1.75;;
30505;SDS011;17292;51.600;4.994;2023-11-21T04:37:21;1.75;;;1.58;;
30505;SDS011;17292;51.600;4.994;2023-11-21T04:39:47;5.75;;;1.85;;
30505;SDS011;17292;51.600;4.994;2023-11-21T04:42:14;5.63;;;2.30;;
30505;SDS011;17292;51.600;4.994;2023-11-21T04:44:40;3.53;;;1.90;;
30505;SDS011;17292;51.600;4.994;2023-11-21T04:47:07;4.70;;;2.20;;
30505;SDS011;17292;51.600;4.994;2023-11-21T04:49:33;4.70;;;2.13;;
30505;SDS011;17292;51.600;4.994;2023-11-21T04:51:59;7.53;;;2.15;;
30505;SDS011;17292;51.600;4.994;2023-11-21T04:54:26;4.30;;;2.10;;
30505;SDS011;17292;51.600;4.994;2023-11-21T04:56:52;4.68;;;1.95;;
30505;SDS011;17292;51.600;4.994;2023-11-21T04:59:19;6.20;;;2.10;;
30505;SDS011;17292;51.600;4.994;2023-11-21T05:01:45;2.97;;;1.85;;
30505;SDS011;17292;51.600;4.994;2023-11-21T05:04:11;6.40;;;2.20;;
30505;SDS011;17292;51.600;4.994;2023-11-21T05:06:37;5.15;;;2.10;;
30505;SDS011;17292;51.600;4.994;2023-11-21T05:09:03;3.22;;;1.55;;
30505;SDS011;17292;51.600;4.994;2023-11-21T05:11:29;3.80;;;2.25;;
30505;SDS011;17292;51.600;4.994;2023-11-21T05:13:57;4.40;;;2.08;;
30505;SDS011;17292;51.600;4.994;2023-11-21T05:16:25;2.25;;;1.33;;
30505;SDS011;17292;51.600;4.994;2023-11-21T05:18:54;2.90;;;1.63;;
30505;SDS011;17292;51.600;4.994;2023-11-21T05:21:25;4.70;;;1.80;;
30505;SDS011;17292;51.600;4.994;2023-11-21T05:23:52;4.20;;;1.75;;
30505;SDS011;17292;51.600;4.994;2023-11-21T05:26:18;5.25;;;1.80;;
30505;SDS011;17292;51.600;4.994;2023-11-21T05:28:44;2.45;;;1.75;;
30505;SDS011;17292;51.600;4.994;2023-11-21T05:31:10;3.88;;;1.88;;
30505;SDS011;17292;51.600;4.994;2023-11-21T05:33:36;3.67;;;1.95;;
30505;SDS011;17292;51.600;4.994;2023-11-21T05:36:03;2.97;;;1.75;;
30505;SDS011;17292;51.600;4.994;2023-11-21T05:38:29;2.78;;;1.67;;
30505;SDS011;17292;51.600;4.994;2023-11-21T05:40:55;3.78;;;1.90;;
30505;SDS011;17292;51.600;4.994;2023-11-21T05:43:23;3.95;;;1.70;;
30505;SDS011;17292;51.600;4.994;2023-11-21T05:45:49;4.57;;;2.15;;
30505;SDS011;17292;51.600;4.994;2023-11-21T05:48:15;3.60;;;1.70;;
30505;SDS011;17292;51.600;4.994;2023-11-21T05:50:42;3.05;;;1.90;;
30505;SDS011;17292;51.600;4.994;2023-11-21T05:53:08;3.33;;;1.85;;
30505;SDS011;17292;51.600;4.994;2023-11-21T05:55:36;4.60;;;1.60;;
30505;SDS011;17292;51.600;4.994;2023-11-21T05:58:04;1.60;;;1.50;;
30505;SDS011;17292;51.600;4.994;2023-11-21T06:00:30;3.60;;;1.80;;
30505;SDS011;17292;51.600;4.994;2023-11-21T06:02:57;4.10;;;1.70;;
30505;SDS011;17292;51.600;4.994;2023-11-21T06:05:23;2.88;;;1.83;;
30505;SDS011;17292;51.600;4.994;2023-11-21T06:07:50;2.33;;;1.48;;
30505;SDS011;17292;51.600;4.994;2023-11-21T06:10:19;5.47;;;2.00;;
30505;SDS011;17292;51.600;4.994;2023-11-21T06:12:45;5.38;;;2.00;;
30505;SDS011;17292;51.600;4.994;2023-11-21T06:15:12;3.30;;;1.80;;
30505;SDS011;17292;51.600;4.994;2023-11-21T06:17:38;8.07;;;1.90;;
30505;SDS011;17292;51.600;4.994;2023-11-21T06:20:05;3.85;;;1.92;;
30505;SDS011;17292;51.600;4.994;2023-11-21T06:22:38;5.55;;;2.05;;
30505;SDS011;17292;51.600;4.994;2023-11-21T06:25:05;4.03;;;1.90;;
30505;SDS011;17292;51.600;4.994;2023-11-21T06:27:36;2.63;;;1.60;;
30505;SDS011;17292;51.600;4.994;2023-11-21T06:30:02;4.07;;;1.80;;
30505;SDS011;17292;51.600;4.994;2023-11-21T06:32:29;4.28;;;1.60;;
30505;SDS011;17292;51.600;4.994;2023-11-21T06:34:55;2.15;;;1.55;;
30505;SDS011;17292;51.600;4.994;2023-11-21T06:37:24;2.22;;;1.60;;
30505;SDS011;17292;51.600;4.994;2023-11-21T06:39:50;5.28;;;1.85;;
30505;SDS011;17292;51.600;4.994;2023-11-21T06:42:17;3.92;;;1.95;;
30505;SDS011;17292;51.600;4.994;2023-11-21T06:44:46;3.10;;;1.60;;
30505;SDS011;17292;51.600;4.994;2023-11-21T06:47:22;4.28;;;1.58;;
30505;SDS011;17292;51.600;4.994;2023-11-21T06:49:51;5.22;;;1.63;;
30505;SDS011;17292;51.600;4.994;2023-11-21T06:52:20;3.70;;;1.63;;
30505;SDS011;17292;51.600;4.994;2023-11-21T06:54:48;5.15;;;1.75;;
30505;SDS011;17292;51.600;4.994;2023-11-21T06:57:17;3.83;;;1.77;;
30505;SDS011;17292;51.600;4.994;2023-11-21T06:59:43;3.72;;;1.77;;
30505;SDS011;17292;51.600;4.994;2023-11-21T07:02:09;3.55;;;1.90;;
30505;SDS011;17292;51.600;4.994;2023-11-21T07:04:36;4.47;;;1.80;;
30505;SDS011;17292;51.600;4.994;2023-11-21T07:07:02;4.03;;;1.85;;
30505;SDS011;17292;51.600;4.994;2023-11-21T07:09:29;5.32;;;2.00;;
30505;SDS011;17292;51.600;4.994;2023-11-21T07:11:56;6.88;;;2.03;;
30505;SDS011;17292;51.600;4.994;2023-11-21T07:14:22;9.98;;;1.88;;
30505;SDS011;17292;51.600;4.994;2023-11-21T07:16:48;3.90;;;1.55;;
30505;SDS011;17292;51.600;4.994;2023-11-21T07:19:16;8.05;;;2.20;;
30505;SDS011;17292;51.600;4.994;2023-11-21T07:21:42;5.25;;;2.13;;
30505;SDS011;17292;51.600;4.994;2023-11-21T07:24:08;10.52;;;2.47;;
30505;SDS011;17292;51.600;4.994;2023-11-21T07:26:36;11.55;;;2.25;;
30505;SDS011;17292;51.600;4.994;2023-11-21T07:29:02;4.55;;;1.75;;
30505;SDS011;17292;51.600;4.994;2023-11-21T07:31:29;18.73;;;2.47;;
30505;SDS011;17292;51.600;4.994;2023-11-21T07:33:57;11.05;;;2.35;;
30505;SDS011;17292;51.600;4.994;2023-11-21T07:36:23;6.65;;;2.10;;
30505;SDS011;17292;51.600;4.994;2023-11-21T07:38:50;10.82;;;2.35;;
30505;SDS011;17292;51.600;4.994;2023-11-21T07:41:17;16.10;;;2.70;;
30505;SDS011;17292;51.600;4.994;2023-11-21T07:43:44;28.02;;;3.17;;
30505;SDS011;17292;51.600;4.994;2023-11-21T07:46:10;30.23;;;2.70;;
30505;SDS011;17292;51.600;4.994;2023-11-21T07:48:38;18.85;;;2.90;;
30505;SDS011;17292;51.600;4.994;2023-11-21T07:51:04;7.50;;;2.42;;
30505;SDS011;17292;51.600;4.994;2023-11-21T07:53:32;8.98;;;2.20;;
30505;SDS011;17292;51.600;4.994;2023-11-21T07:55:58;13.45;;;2.40;;
30505;SDS011;17292;51.600;4.994;2023-11-21T07:58:24;10.27;;;2.33;;
30505;SDS011;17292;51.600;4.994;2023-11-21T08:00:51;5.75;;;1.75;;
30505;SDS011;17292;51.600;4.994;2023-11-21T08:03:17;7.63;;;1.85;;
30505;SDS011;17292;51.600;4.994;2023-11-21T08:05:43;8.95;;;2.20;;
30505;SDS011;17292;51.600;4.994;2023-11-21T08:08:10;8.40;;;1.95;;
30505;SDS011;17292;51.600;4.994;2023-11-21T08:10:36;7.50;;;1.95;;
30505;SDS011;17292;51.600;4.994;2023-11-21T08:13:04;7.03;;;1.90;;
30505;SDS011;17292;51.600;4.994;2023-11-21T08:15:30;4.97;;;2.05;;
30505;SDS011;17292;51.600;4.994;2023-11-21T08:17:57;5.43;;;2.20;;
30505;SDS011;17292;51.600;4.994;2023-11-21T08:20:24;7.38;;;1.92;;
30505;SDS011;17292;51.600;4.994;2023-11-21T08:22:50;7.32;;;2.05;;
30505;SDS011;17292;51.600;4.994;2023-11-21T08:25:22;11.45;;;2.35;;
30505;SDS011;17292;51.600;4.994;2023-11-21T08:27:48;8.75;;;2.95;;
30505;SDS011;17292;51.600;4.994;2023-11-21T08:30:14;9.63;;;2.63;;
30505;SDS011;17292;51.600;4.994;2023-11-21T08:32:42;5.75;;;2.15;;
30505;SDS011;17292;51.600;4.994;2023-11-21T08:35:08;10.65;;;2.00;;
30505;SDS011;17292;51.600;4.994;2023-11-21T08:37:35;11.60;;;2.35;;
30505;SDS011;17292;51.600;4.994;2023-11-21T08:40:03;9.43;;;1.88;;
30505;SDS011;17292;51.600;4.994;2023-11-21T08:42:33;9.82;;;1.85;;
30505;SDS011;17292;51.600;4.994;2023-11-21T08:45:00;10.57;;;2.42;;
30505;SDS011;17292;51.600;4.994;2023-11-21T08:47:26;7.13;;;1.80;;
30505;SDS011;17292;51.600;4.994;2023-11-21T08:49:52;7.45;;;2.00;;
30505;SDS011;17292;51.600;4.994;2023-11-21T08:52:19;6.10;;;2.15;;
30505;SDS011;17292;51.600;4.994;2023-11-21T08:54:49;6.80;;;2.25;;
30505;SDS011;17292;51.600;4.994;2023-11-21T08:57:21;6.90;;;2.10;;
30505;SDS011;17292;51.600;4.994;2023-11-21T08:59:48;6.72;;;2.17;;
30505;SDS011;17292;51.600;4.994;2023-11-21T09:02:14;4.20;;;2.03;;
30505;SDS011;17292;51.600;4.994;2023-11-21T09:04:40;7.10;;;2.17;;
30505;SDS011;17292;51.600;4.994;2023-11-21T09:07:06;10.18;;;2.13;;
30505;SDS011;17292;51.600;4.994;2023-11-21T09:09:32;9.50;;;2.38;;
30505;SDS011;17292;51.600;4.994;2023-11-21T09:11:59;8.80;;;2.00;;
30505;SDS011;17292;51.600;4.994;2023-11-21T09:14:26;5.63;;;2.08;;
30505;SDS011;17292;51.600;4.994;2023-11-21T09:16:53;7.40;;;1.73;;
30505;SDS011;17292;51.600;4.994;2023-11-21T09:19:21;10.40;;;2.15;;
30505;SDS011;17292;51.600;4.994;2023-11-21T09:21:47;6.68;;;2.33;;
30505;SDS011;17292;51.600;4.994;2023-11-21T09:24:14;5.25;;;1.77;;
30505;SDS011;17292;51.600;4.994;2023-11-21T09:26:40;6.18;;;1.70;;
30505;SDS011;17292;51.600;4.994;2023-11-21T09:29:06;13.63;;;2.33;;
30505;SDS011;17292;51.600;4.994;2023-11-21T09:31:33;7.60;;;1.95;;
30505;SDS011;17292;51.600;4.994;2023-11-21T09:34:00;15.55;;;2.25;;
30505;SDS011;17292;51.600;4.994;2023-11-21T09:36:27;12.15;;;2.25;;
30505;SDS011;17292;51.600;4.994;2023-11-21T09:38:55;14.48;;;2.85;;
30505;SDS011;17292;51.600;4.994;2023-11-21T09:41:24;18.92;;;2.42;;
30505;SDS011;17292;51.600;4.994;2023-11-21T09:43:52;10.68;;;2.17;;
30505;SDS011;17292;51.600;4.994;2023-11-21T09:46:21;15.50;;;2.83;;
30505;SDS011;17292;51.600;4.994;2023-11-21T09:48:50;9.00;;;2.20;;
30505;SDS011;17292;51.600;4.994;2023-11-21T09:51:18;15.80;;;2.42;;
30505;SDS011;17292;51.600;4.994;2023-11-21T09:53:47;9.18;;;2.38;;
30505;SDS011;17292;51.600;4.994;2023-11-21T09:58:52;11.82;;;2.38;;
30505;SDS011;17292;51.600;4.994;2023-11-21T10:01:19;8.90;;;2.30;;
30505;SDS011;17292;51.600;4.994;2023-11-21T10:03:46;7.72;;;1.92;;
30505;SDS011;17292;51.600;4.994;2023-11-21T10:06:13;15.82;;;1.95;;
30505;SDS011;17292;51.600;4.994;2023-11-21T10:08:39;14.35;;;2.17;;
30505;SDS011;17292;51.600;4.994;2023-11-21T10:11:07;10.55;;;2.30;;
30505;SDS011;17292;51.600;4.994;2023-11-21T10:13:36;11.60;;;2.20;;
30505;SDS011;17292;51.600;4.994;2023-11-21T10:16:03;9.80;;;2.58;;
30505;SDS011;17292;51.600;4.994;2023-11-21T10:18:30;10.70;;;2.40;;
30505;SDS011;17292;51.600;4.994;2023-11-21T10:20:59;11.60;;;2.25;;
30505;SDS011;17292;51.600;4.994;2023-11-21T10:23:26;12.63;;;2.10;;
30505;SDS011;17292;51.600;4.994;2023-11-21T10:25:53;10.80;;;2.03;;
30505;SDS011;17292;51.600;4.994;2023-11-21T10:28:20;10.13;;;1.90;;
30505;SDS011;17292;51.600;4.994;2023-11-21T10:30:46;11.05;;;2.63;;
30505;SDS011;17292;51.600;4.994;2023-11-21T10:33:12;9.27;;;2.40;;
30505;SDS011;17292;51.600;4.994;2023-11-21T10:35:39;12.80;;;2.13;;
30505;SDS011;17292;51.600;4.994;2023-11-21T10:38:05;7.80;;;2.03;;
30505;SDS011;17292;51.600;4.994;2023-11-21T10:40:37;12.95;;;2.10;;
30505;SDS011;17292;51.600;4.994;2023-11-21T10:43:07;11.13;;;2.08;;
30505;SDS011;17292;51.600;4.994;2023-11-21T10:45:34;7.10;;;1.95;;
30505;SDS011;17292;51.600;4.994;2023-11-21T10:48:04;8.75;;;2.00;;
30505;SDS011;17292;51.600;4.994;2023-11-21T10:50:32;4.53;;;1.30;;
30505;SDS011;17292;51.600;4.994;2023-11-21T10:53:00;11.02;;;1.88;;
30505;SDS011;17292;51.600;4.994;2023-11-21T10:55:27;14.63;;;2.13;;
30505;SDS011;17292;51.600;4.994;2023-11-21T10:57:54;5.07;;;1.52;;
30505;SDS011;17292;51.600;4.994;2023-11-21T11:00:22;5.88;;;1.60;;
30505;SDS011;17292;51.600;4.994;2023-11-21T11:02:50;6.45;;;1.85;;
30505;SDS011;17292;51.600;4.994;2023-11-21T11:05:19;11.65;;;1.92;;
30505;SDS011;17292;51.600;4.994;2023-11-21T11:07:48;10.30;;;2.08;;
30505;SDS011;17292;51.600;4.994;2023-11-21T11:10:17;11.40;;;2.40;;
30505;SDS011;17292;51.600;4.994;2023-11-21T11:12:46;12.23;;;2.03;;
30505;SDS011;17292;51.600;4.994;2023-11-21T11:15:13;11.45;;;1.80;;
30505;SDS011;17292;51.600;4.994;2023-11-21T11:17:39;6.75;;;1.98;;
30505;SDS011;17292;51.600;4.994;2023-11-21T11:20:08;8.32;;;2.22;;
30505;SDS011;17292;51.600;4.994;2023-11-21T11:23:21;8.40;;;1.63;;
30505;SDS011;17292;51.600;4.994;2023-11-21T11:33:31;9.90;;;1.92;;
30505;SDS011;17292;51.600;4.994;2023-11-21T11:36:04;14.45;;;2.00;;
30505;SDS011;17292;51.600;4.994;2023-11-21T11:38:33;11.18;;;2.28;;
30505;SDS011;17292;51.600;4.994;2023-11-21T11:41:04;7.28;;;1.95;;
30505;SDS011;17292;51.600;4.994;2023-11-21T11:43:31;11.43;;;2.30;;
30505;SDS011;17292;51.600;4.994;2023-11-21T11:45:59;9.25;;;2.45;;
30505;SDS011;17292;51.600;4.994;2023-11-21T11:48:28;12.13;;;2.30;;
30505;SDS011;17292;51.600;4.994;2023-11-21T11:51:04;7.43;;;2.03;;
30505;SDS011;17292;51.600;4.994;2023-11-21T11:53:43;20.13;;;2.47;;
30505;SDS011;17292;51.600;4.994;2023-11-21T11:56:24;10.25;;;2.03;;
30505;SDS011;17292;51.600;4.994;2023-11-21T11:58:54;20.10;;;2.70;;
30505;SDS011;17292;51.600;4.994;2023-11-21T12:01:21;12.00;;;2.10;;
30505;SDS011;17292;51.600;4.994;2023-11-21T12:06:33;18.17;;;2.50;;
30505;SDS011;17292;51.600;4.994;2023-11-21T12:09:01;16.35;;;2.47;;
30505;SDS011;17292;51.600;4.994;2023-11-21T12:11:33;15.82;;;2.28;;
30505;SDS011;17292;51.600;4.994;2023-11-21T12:14:01;13.85;;;2.53;;
30505;SDS011;17292;51.600;4.994;2023-11-21T12:16:27;13.07;;;2.83;;
30505;SDS011;17292;51.600;4.994;2023-11-21T12:18:53;19.38;;;2.20;;
30505;SDS011;17292;51.600;4.994;2023-11-21T12:21:20;18.25;;;2.70;;
30505;SDS011;17292;51.600;4.994;2023-11-21T12:23:46;19.08;;;2.47;;
30505;SDS011;17292;51.600;4.994;2023-11-21T12:26:13;8.38;;;1.80;;
30505;SDS011;17292;51.600;4.994;2023-11-21T12:28:39;6.82;;;1.90;;
30505;SDS011;17292;51.600;4.994;2023-11-21T12:31:05;16.55;;;2.08;;
30505;SDS011;17292;51.600;4.994;2023-11-21T12:33:34;15.65;;;2.75;;
30505;SDS011;17292;51.600;4.994;2023-11-21T12:36:01;21.83;;;2.85;;
30505;SDS011;17292;51.600;4.994;2023-11-21T12:38:33;14.05;;;2.58;;
30505;SDS011;17292;51.600;4.994;2023-11-21T12:41:00;15.77;;;2.10;;
30505;SDS011;17292;51.600;4.994;2023-11-21T12:43:26;15.48;;;2.55;;
30505;SDS011;17292;51.600;4.994;2023-11-21T12:46:04;22.90;;;2.97;;
30505;SDS011;17292;51.600;4.994;2023-11-21T12:48:31;13.70;;;1.88;;
30505;SDS011;17292;51.600;4.994;2023-11-21T12:50:57;24.73;;;2.30;;
30505;SDS011;17292;51.600;4.994;2023-11-21T12:53:25;12.05;;;2.53;;
30505;SDS011;17292;51.600;4.994;2023-11-21T12:55:58;26.63;;;2.90;;
30505;SDS011;17292;51.600;4.994;2023-11-21T12:58:26;17.75;;;2.40;;
30505;SDS011;17292;51.600;4.994;2023-11-21T13:00:52;11.02;;;2.50;;
30505;SDS011;17292;51.600;4.994;2023-11-21T13:03:19;16.40;;;2.45;;
30505;SDS011;17292;51.600;4.994;2023-11-21T13:05:50;8.65;;;2.28;;
30505;SDS011;17292;51.600;4.994;2023-11-21T13:08:19;15.50;;;2.47;;
30505;SDS011;17292;51.600;4.994;2023-11-21T13:10:48;15.30;;;2.33;;
30505;SDS011;17292;51.600;4.994;2023-11-21T13:13:15;7.95;;;2.10;;
30505;SDS011;17292;51.600;4.994;2023-11-21T13:15:47;13.93;;;2.58;;
30505;SDS011;17292;51.600;4.994;2023-11-21T13:18:13;7.78;;;2.10;;
30505;SDS011;17292;51.600;4.994;2023-11-21T13:20:41;11.23;;;2.30;;
30505;SDS011;17292;51.600;4.994;2023-11-21T13:23:11;7.70;;;1.90;;
30505;SDS011;17292;51.600;4.994;2023-11-21T13:25:38;6.13;;;1.80;;
30505;SDS011;17292;51.600;4.994;2023-11-21T13:28:08;17.17;;;2.20;;
30505;SDS011;17292;51.600;4.994;2023-11-21T13:30:37;8.98;;;2.13;;
30505;SDS011;17292;51.600;4.994;2023-11-21T13:33:05;14.73;;;2.40;;
30505;SDS011;17292;51.600;4.994;2023-11-21T13:35:36;12.15;;;2.05;;
30505;SDS011;17292;51.600;4.994;2023-11-21T13:40:33;13.85;;;2.28;;
30505;SDS011;17292;51.600;4.994;2023-11-21T13:43:05;11.82;;;2.30;;
30505;SDS011;17292;51.600;4.994;2023-11-21T13:45:35;10.85;;;2.22;;
30505;SDS011;17292;51.600;4.994;2023-11-21T13:48:01;13.50;;;2.33;;
30505;SDS011;17292;51.600;4.994;2023-11-21T13:50:30;14.75;;;2.00;;
30505;SDS011;17292;51.600;4.994;2023-11-21T13:53:02;10.30;;;2.05;;
30505;SDS011;17292;51.600;4.994;2023-11-21T13:55:44;15.52;;;2.03;;
30505;SDS011;17292;51.600;4.994;2023-11-21T13:58:11;17.60;;;2.45;;
30505;SDS011;17292;51.600;4.994;2023-11-21T14:00:43;21.05;;;2.60;;
30505;SDS011;17292;51.600;4.994;2023-11-21T14:03:13;18.90;;;2.80;;
30505;SDS011;17292;51.600;4.994;2023-11-21T14:06:12;17.77;;;2.55;;
30505;SDS011;17292;51.600;4.994;2023-11-21T14:08:45;23.40;;;2.85;;
30505;SDS011;17292;51.600;4.994;2023-11-21T14:11:12;16.05;;;2.88;;
30505;SDS011;17292;51.600;4.994;2023-11-21T14:13:42;19.70;;;3.25;;
30505;SDS011;17292;51.600;4.994;2023-11-21T14:16:13;19.65;;;2.90;;
30505;SDS011;17292;51.600;4.994;2023-11-21T14:18:39;15.68;;;2.97;;
30505;SDS011;17292;51.600;4.994;2023-11-21T14:21:17;16.67;;;3.13;;
30505;SDS011;17292;51.600;4.994;2023-11-21T14:23:44;11.40;;;2.45;;
30505;SDS011;17292;51.600;4.994;2023-11-21T14:26:11;11.10;;;2.95;;
30505;SDS011;17292;51.600;4.994;2023-11-21T14:28:42;19.25;;;3.08;;
30505;SDS011;17292;51.600;4.994;2023-11-21T14:31:08;15.82;;;2.88;;
30505;SDS011;17292;51.600;4.994;2023-11-21T14:33:40;22.15;;;2.75;;
30505;SDS011;17292;51.600;4.994;2023-11-21T14:36:06;11.98;;;2.30;;
30505;SDS011;17292;51.600;4.994;2023-11-21T14:38:35;11.70;;;2.53;;
30505;SDS011;17292;51.600;4.994;2023-11-21T14:41:03;7.68;;;2.65;;
30505;SDS011;17292;51.600;4.994;2023-11-21T14:43:32;9.98;;;2.15;;
30505;SDS011;17292;51.600;4.994;2023-11-21T14:46:00;13.90;;;2.42;;
30505;SDS011;17292;51.600;4.994;2023-11-21T14:48:28;10.02;;;2.30;;
30505;SDS011;17292;51.600;4.994;2023-11-21T14:51:13;12.80;;;2.90;;
30505;SDS011;17292;51.600;4.994;2023-11-21T14:53:57;16.75;;;2.78;;
30505;SDS011;17292;51.600;4.994;2023-11-21T14:56:35;12.57;;;2.33;;
30505;SDS011;17292;51.600;4.994;2023-11-21T14:59:03;10.80;;;2.70;;
30505;SDS011;17292;51.600;4.994;2023-11-21T15:01:41;12.65;;;2.40;;